sensor_id;sensor_type;location;lat;lon;timestamp;P1;durP1;ratioP1;P2;durP2;ratioP2
57301;SDS011;43149;50.974;18.224;2023-03-07T00:03:47;44.80;;;20.40;;
57301;SDS011;43149;50.974;18.224;2023-03-07T00:13:31;43.20;;;18.70;;
57301;SDS011;43149;50.974;18.224;2023-03-07T00:23:26;43.20;;;16.30;;
57301;SDS011;43149;50.974;18.224;2023-03-07T00:33:16;40.30;;;22.60;;
57301;SDS011;43149;50.974;18.224;2023-03-07T00:38:08;77.50;;;41.40;;
57301;SDS011;43149;50.974;18.224;2023-03-07T00:47:51;41.50;;;20.00;;
57301;SDS011;43149;50.974;18.224;2023-03-07T00:55:08;88.10;;;44.30;;
57301;SDS011;43149;50.974;18.224;2023-03-07T01:04:51;55.50;;;24.70;;
57301;SDS011;43149;50.974;18.224;2023-03-07T01:14:34;44.90;;;16.70;;
57301;SDS011;43149;50.974;18.224;2023-03-07T01:24:18;41.40;;;17.70;;
57301;SDS011;43149;50.974;18.224;2023-03-07T01:34:01;38.30;;;11.60;;
57301;SDS011;43149;50.974;18.224;2023-03-07T01:43:48;47.80;;;25.70;;
57301;SDS011;43149;50.974;18.224;2023-03-07T01:53:36;31.50;;;16.30;;
57301;SDS011;43149;50.974;18.224;2023-03-07T02:13:49;28.20;;;12.90;;
57301;SDS011;43149;50.974;18.224;2023-03-07T02:33:47;31.00;;;14.40;;
57301;SDS011;43149;50.974;18.224;2023-03-07T02:43:56;39.80;;;20.20;;
57301;SDS011;43149;50.974;18.224;2023-03-07T02:53:39;54.10;;;21.00;;
57301;SDS011;43149;50.974;18.224;2023-03-07T03:03:24;43.50;;;16.90;;
57301;SDS011;43149;50.974;18.224;2023-03-07T03:13:06;65.90;;;27.80;;
57301;SDS011;43149;50.974;18.224;2023-03-07T03:22:50;66.10;;;26.00;;
57301;SDS011;43149;50.974;18.224;2023-03-07T03:32:36;24.70;;;9.70;;
57301;SDS011;43149;50.974;18.224;2023-03-07T03:42:21;41.40;;;15.50;;
57301;SDS011;43149;50.974;18.224;2023-03-07T03:52:05;47.50;;;16.90;;
57301;SDS011;43149;50.974;18.224;2023-03-07T03:59:22;121.10;;;54.60;;
57301;SDS011;43149;50.974;18.224;2023-03-07T04:09:07;58.60;;;24.50;;
57301;SDS011;43149;50.974;18.224;2023-03-07T04:18:51;83.00;;;28.20;;
57301;SDS011;43149;50.974;18.224;2023-03-07T04:28:36;67.70;;;25.70;;
57301;SDS011;43149;50.974;18.224;2023-03-07T04:38:30;67.20;;;26.20;;
57301;SDS011;43149;50.974;18.224;2023-03-07T04:43:22;110.20;;;50.00;;
57301;SDS011;43149;50.974;18.224;2023-03-07T04:53:05;85.70;;;25.70;;
57301;SDS011;43149;50.974;18.224;2023-03-07T05:02:48;69.40;;;28.10;;
57301;SDS011;43149;50.974;18.224;2023-03-07T05:12:32;52.90;;;24.60;;
57301;SDS011;43149;50.974;18.224;2023-03-07T05:22:18;72.50;;;25.70;;
57301;SDS011;43149;50.974;18.224;2023-03-07T05:32:02;52.50;;;25.50;;
57301;SDS011;43149;50.974;18.224;2023-03-07T05:41:45;66.40;;;25.80;;
57301;SDS011;43149;50.974;18.224;2023-03-07T05:51:28;59.20;;;25.10;;
57301;SDS011;43149;50.974;18.224;2023-03-07T06:01:11;62.40;;;27.00;;
57301;SDS011;43149;50.974;18.224;2023-03-07T06:18:13;41.40;;;19.30;;
57301;SDS011;43149;50.974;18.224;2023-03-07T06:27:57;44.70;;;19.00;;
57301;SDS011;43149;50.974;18.224;2023-03-07T06:37:42;43.40;;;23.40;;
57301;SDS011;43149;50.974;18.224;2023-03-07T06:42:35;68.60;;;38.00;;
57301;SDS011;43149;50.974;18.224;2023-03-07T06:52:20;54.90;;;22.50;;
57301;SDS011;43149;50.974;18.224;2023-03-07T07:02:04;74.10;;;30.00;;
57301;SDS011;43149;50.974;18.224;2023-03-07T07:11:48;68.50;;;23.50;;
57301;SDS011;43149;50.974;18.224;2023-03-07T07:21:31;34.30;;;16.90;;
57301;SDS011;43149;50.974;18.224;2023-03-07T07:31:18;19.10;;;9.60;;
57301;SDS011;43149;50.974;18.224;2023-03-07T07:41:02;48.40;;;20.30;;
57301;SDS011;43149;50.974;18.224;2023-03-07T07:50:45;33.50;;;13.40;;
57301;SDS011;43149;50.974;18.224;2023-03-07T08:00:29;31.90;;;17.20;;
57301;SDS011;43149;50.974;18.224;2023-03-07T08:10:14;36.20;;;20.00;;
57301;SDS011;43149;50.974;18.224;2023-03-07T08:19:59;26.80;;;12.90;;
57301;SDS011;43149;50.974;18.224;2023-03-07T08:29:49;18.70;;;12.80;;
57301;SDS011;43149;50.974;18.224;2023-03-07T08:39:32;31.60;;;11.90;;
57301;SDS011;43149;50.974;18.224;2023-03-07T08:49:15;31.10;;;13.40;;
57301;SDS011;43149;50.974;18.224;2023-03-07T08:58:58;17.00;;;10.10;;
57301;SDS011;43149;50.974;18.224;2023-03-07T09:08:42;17.40;;;10.10;;
57301;SDS011;43149;50.974;18.224;2023-03-07T09:18:28;16.90;;;8.00;;
57301;SDS011;43149;50.974;18.224;2023-03-07T09:28:14;18.80;;;9.20;;
57301;SDS011;43149;50.974;18.224;2023-03-07T09:37:57;18.60;;;11.60;;
57301;SDS011;43149;50.974;18.224;2023-03-07T09:58:36;23.50;;;10.80;;
57301;SDS011;43149;50.974;18.224;2023-03-07T10:08:36;16.90;;;9.40;;
57301;SDS011;43149;50.974;18.224;2023-03-07T10:19:16;12.50;;;7.30;;
57301;SDS011;43149;50.974;18.224;2023-03-07T10:29:54;12.30;;;6.60;;
57301;SDS011;43149;50.974;18.224;2023-03-07T10:40:01;20.60;;;10.70;;
57301;SDS011;43149;50.974;18.224;2023-03-07T10:50:00;12.10;;;8.40;;
57301;SDS011;43149;50.974;18.224;2023-03-07T11:00:44;14.10;;;9.60;;
57301;SDS011;43149;50.974;18.224;2023-03-07T11:10:57;12.40;;;8.50;;
57301;SDS011;43149;50.974;18.224;2023-03-07T11:20:55;29.30;;;13.40;;
57301;SDS011;43149;50.974;18.224;2023-03-07T11:41:18;14.10;;;7.30;;
57301;SDS011;43149;50.974;18.224;2023-03-07T11:52:04;8.00;;;6.40;;
57301;SDS011;43149;50.974;18.224;2023-03-07T12:02:34;19.00;;;8.70;;
57301;SDS011;43149;50.974;18.224;2023-03-07T12:12:33;8.90;;;4.70;;
57301;SDS011;43149;50.974;18.224;2023-03-07T12:23:23;27.70;;;11.90;;
57301;SDS011;43149;50.974;18.224;2023-03-07T12:33:26;11.60;;;6.90;;
57301;SDS011;43149;50.974;18.224;2023-03-07T13:01:19;1.60;;;1.50;;
57301;SDS011;43149;50.974;18.224;2023-03-07T13:11:26;14.20;;;7.90;;
57301;SDS011;43149;50.974;18.224;2023-03-07T13:21:42;9.30;;;5.80;;
57301;SDS011;43149;50.974;18.224;2023-03-07T13:32:45;10.60;;;5.20;;
57301;SDS011;43149;50.974;18.224;2023-03-07T13:42:49;6.30;;;4.50;;
57301;SDS011;43149;50.974;18.224;2023-03-07T13:53:01;11.40;;;5.20;;
57301;SDS011;43149;50.974;18.224;2023-03-07T14:03:08;14.20;;;8.00;;
57301;SDS011;43149;50.974;18.224;2023-03-07T14:22:56;6.00;;;4.50;;
57301;SDS011;43149;50.974;18.224;2023-03-07T14:32:54;6.60;;;5.40;;
57301;SDS011;43149;50.974;18.224;2023-03-07T14:53:31;3.70;;;2.50;;
57301;SDS011;43149;50.974;18.224;2023-03-07T15:03:26;7.60;;;4.30;;
57301;SDS011;43149;50.974;18.224;2023-03-07T15:21:01;14.00;;;7.00;;
57301;SDS011;43149;50.974;18.224;2023-03-07T15:30:53;13.90;;;7.40;;
57301;SDS011;43149;50.974;18.224;2023-03-07T15:58:23;15.70;;;8.00;;
57301;SDS011;43149;50.974;18.224;2023-03-07T16:08:21;16.70;;;8.60;;
57301;SDS011;43149;50.974;18.224;2023-03-07T16:18:25;10.40;;;8.70;;
57301;SDS011;43149;50.974;18.224;2023-03-07T16:28:09;17.40;;;8.50;;
57301;SDS011;43149;50.974;18.224;2023-03-07T16:37:53;9.70;;;5.10;;
57301;SDS011;43149;50.974;18.224;2023-03-07T16:42:46;13.70;;;8.90;;
57301;SDS011;43149;50.974;18.224;2023-03-07T16:52:40;5.30;;;4.80;;
57301;SDS011;43149;50.974;18.224;2023-03-07T17:02:26;6.30;;;3.90;;
57301;SDS011;43149;50.974;18.224;2023-03-07T17:12:12;4.30;;;3.90;;
57301;SDS011;43149;50.974;18.224;2023-03-07T17:21:57;13.00;;;4.80;;
57301;SDS011;43149;50.974;18.224;2023-03-07T17:31:49;2.20;;;1.00;;
57301;SDS011;43149;50.974;18.224;2023-03-07T17:41:39;8.30;;;3.40;;
57301;SDS011;43149;50.974;18.224;2023-03-07T17:51:23;20.20;;;9.80;;
57301;SDS011;43149;50.974;18.224;2023-03-07T17:58:41;34.80;;;17.80;;
57301;SDS011;43149;50.974;18.224;2023-03-07T18:08:24;14.10;;;7.20;;
57301;SDS011;43149;50.974;18.224;2023-03-07T18:18:11;23.30;;;12.10;;
57301;SDS011;43149;50.974;18.224;2023-03-07T18:27:54;44.60;;;14.40;;
57301;SDS011;43149;50.974;18.224;2023-03-07T18:37:40;16.30;;;8.00;;
57301;SDS011;43149;50.974;18.224;2023-03-07T18:47:26;27.30;;;9.80;;
57301;SDS011;43149;50.974;18.224;2023-03-07T18:57:09;8.20;;;5.30;;
57301;SDS011;43149;50.974;18.224;2023-03-07T19:06:53;14.60;;;5.80;;
57301;SDS011;43149;50.974;18.224;2023-03-07T19:16:41;8.10;;;5.70;;
57301;SDS011;43149;50.974;18.224;2023-03-07T19:26:27;17.60;;;8.70;;
57301;SDS011;43149;50.974;18.224;2023-03-07T19:36:12;18.40;;;5.80;;
57301;SDS011;43149;50.974;18.224;2023-03-07T19:45:58;16.20;;;6.70;;
57301;SDS011;43149;50.974;18.224;2023-03-07T19:55:46;14.20;;;8.20;;
57301;SDS011;43149;50.974;18.224;2023-03-07T20:05:30;20.20;;;8.50;;
57301;SDS011;43149;50.974;18.224;2023-03-07T20:15:16;18.90;;;6.50;;
57301;SDS011;43149;50.974;18.224;2023-03-07T20:25:00;11.40;;;5.00;;
57301;SDS011;43149;50.974;18.224;2023-03-07T20:34:43;20.60;;;8.60;;
57301;SDS011;43149;50.974;18.224;2023-03-07T20:44:28;14.70;;;8.40;;
57301;SDS011;43149;50.974;18.224;2023-03-07T20:54:14;5.70;;;4.40;;
57301;SDS011;43149;50.974;18.224;2023-03-07T21:04:00;18.10;;;5.70;;
57301;SDS011;43149;50.974;18.224;2023-03-07T21:13:50;15.30;;;3.70;;
57301;SDS011;43149;50.974;18.224;2023-03-07T21:23:46;9.00;;;6.90;;
57301;SDS011;43149;50.974;18.224;2023-03-07T21:33:37;8.50;;;5.20;;
57301;SDS011;43149;50.974;18.224;2023-03-07T21:43:22;14.10;;;4.30;;
57301;SDS011;43149;50.974;18.224;2023-03-07T21:53:09;18.80;;;8.10;;
57301;SDS011;43149;50.974;18.224;2023-03-07T22:02:55;11.50;;;5.40;;
57301;SDS011;43149;50.974;18.224;2023-03-07T22:12:40;7.50;;;4.80;;
57301;SDS011;43149;50.974;18.224;2023-03-07T22:22:25;9.70;;;5.40;;
57301;SDS011;43149;50.974;18.224;2023-03-07T22:32:09;7.10;;;4.60;;
57301;SDS011;43149;50.974;18.224;2023-03-07T22:41:53;9.10;;;5.60;;
57301;SDS011;43149;50.974;18.224;2023-03-07T22:51:36;20.00;;;5.80;;
57301;SDS011;43149;50.974;18.224;2023-03-07T23:01:22;19.40;;;8.00;;
57301;SDS011;43149;50.974;18.224;2023-03-07T23:11:11;0.60;;;0.60;;
57301;SDS011;43149;50.974;18.224;2023-03-07T23:21:00;5.90;;;3.20;;
57301;SDS011;43149;50.974;18.224;2023-03-07T23:30:49;19.30;;;8.80;;
57301;SDS011;43149;50.974;18.224;2023-03-07T23:40:33;18.50;;;7.80;;
57301;SDS011;43149;50.974;18.224;2023-03-07T23:50:17;10.30;;;5.00;;
